<?xml version="1.0" encoding="UTF-8" standalone="no" ?>
<gpx xmlns="http://www.topografix.com/GPX/1/1" xmlns:xsi="http://www.w3.org/2001/XMLSchema-instance" xsi:schemaLocation="http://www.topografix.com/GPX/1/1 http://www.topografix.com/GPX/1/1/gpx.xsd" version="1.1" creator="VisuGPX - https://www.visugpx.com">
  <metadata>
    <name>irun - ibardin- bera - saint ignace - st jean de luz</name>
  </metadata>
  <wpt lat="43.33577" lon="-1.75293">
    <ele>10.3</ele>
  </wpt>
  <wpt lat="43.33454" lon="-1.74887">
    <ele>29.3</ele>
  </wpt>
  <trk>
    <name><![CDATA[11184953-la Rhune]]></name>
    <trkseg>
      <trkpt lat="43.38299" lon="-1.6508">
        <ele>11</ele>
        <time>2020-04-07T12:38:50Z</time>
      </trkpt>
      <trkpt lat="43.38256" lon="-1.64957">
        <ele>8</ele>
        <time>2020-04-07T12:39:08Z</time>
      </trkpt>
      <trkpt lat="43.38255" lon="-1.6488">
        <ele>9</ele>
        <time>2020-04-07T12:39:18Z</time>
      </trkpt>
      <trkpt lat="43.38277" lon="-1.64488">
        <ele>10</ele>
        <time>2020-04-07T12:40:09Z</time>
      </trkpt>
      <trkpt lat="43.38264" lon="-1.64383">
        <ele>7</ele>
        <time>2020-04-07T12:40:23Z</time>
      </trkpt>
      <trkpt lat="43.38212" lon="-1.64283">
        <ele>5</ele>
        <time>2020-04-07T12:40:39Z</time>
      </trkpt>
      <trkpt lat="43.3812" lon="-1.64193">
        <ele>6</ele>
        <time>2020-04-07T12:40:59Z</time>
      </trkpt>
      <trkpt lat="43.37776" lon="-1.63786">
        <ele>8</ele>
        <time>2020-04-07T12:42:21Z</time>
      </trkpt>
      <trkpt lat="43.37738" lon="-1.63772">
        <ele>8</ele>
        <time>2020-04-07T12:42:28Z</time>
      </trkpt>
      <trkpt lat="43.37541" lon="-1.63786">
        <ele>5</ele>
        <time>2020-04-07T12:43:03Z</time>
      </trkpt>
      <trkpt lat="43.37517" lon="-1.6379">
        <ele>4</ele>
        <time>2020-04-07T12:43:08Z</time>
      </trkpt>
      <trkpt lat="43.37409" lon="-1.63788">
        <ele>4</ele>
        <time>2020-04-07T12:43:27Z</time>
      </trkpt>
      <trkpt lat="43.37085" lon="-1.63801">
        <ele>6</ele>
        <time>2020-04-07T12:44:25Z</time>
      </trkpt>
      <trkpt lat="43.36722" lon="-1.63585">
        <ele>7</ele>
        <time>2020-04-07T12:45:35Z</time>
      </trkpt>
      <trkpt lat="43.36675" lon="-1.63576">
        <ele>8</ele>
        <time>2020-04-07T12:45:44Z</time>
      </trkpt>
      <trkpt lat="43.36367" lon="-1.63664">
        <ele>7</ele>
        <time>2020-04-07T12:46:40Z</time>
      </trkpt>
      <trkpt lat="43.36308" lon="-1.63673">
        <ele>7</ele>
        <time>2020-04-07T12:46:50Z</time>
      </trkpt>
      <trkpt lat="43.36097" lon="-1.63603">
        <ele>5</ele>
        <time>2020-04-07T12:47:29Z</time>
      </trkpt>
      <trkpt lat="43.36061" lon="-1.63577">
        <ele>5</ele>
        <time>2020-04-07T12:47:36Z</time>
      </trkpt>
      <trkpt lat="43.36014" lon="-1.63501">
        <ele>6</ele>
        <time>2020-04-07T12:47:49Z</time>
      </trkpt>
      <trkpt lat="43.35984" lon="-1.63434">
        <ele>8</ele>
        <time>2020-04-07T12:47:59Z</time>
      </trkpt>
      <trkpt lat="43.35859" lon="-1.6328">
        <ele>9</ele>
        <time>2020-04-07T12:48:29Z</time>
      </trkpt>
      <trkpt lat="43.3575" lon="-1.63192">
        <ele>7</ele>
        <time>2020-04-07T12:48:52Z</time>
      </trkpt>
      <trkpt lat="43.35663" lon="-1.63166">
        <ele>6</ele>
        <time>2020-04-07T12:49:08Z</time>
      </trkpt>
      <trkpt lat="43.35638" lon="-1.63154">
        <ele>6</ele>
        <time>2020-04-07T12:49:13Z</time>
      </trkpt>
      <trkpt lat="43.35365" lon="-1.63059">
        <ele>7</ele>
        <time>2020-04-07T12:50:03Z</time>
      </trkpt>
      <trkpt lat="43.35306" lon="-1.62998">
        <ele>6</ele>
        <time>2020-04-07T12:50:16Z</time>
      </trkpt>
      <trkpt lat="43.35258" lon="-1.62906">
        <ele>6</ele>
        <time>2020-04-07T12:50:31Z</time>
      </trkpt>
      <trkpt lat="43.35118" lon="-1.62528">
        <ele>12</ele>
        <time>2020-04-07T12:51:26Z</time>
      </trkpt>
      <trkpt lat="43.35033" lon="-1.62537">
        <ele>6</ele>
        <time>2020-04-07T12:51:41Z</time>
      </trkpt>
      <trkpt lat="43.34988" lon="-1.6253">
        <ele>6</ele>
        <time>2020-04-07T12:51:49Z</time>
      </trkpt>
      <trkpt lat="43.34897" lon="-1.62493">
        <ele>7</ele>
        <time>2020-04-07T12:52:07Z</time>
      </trkpt>
      <trkpt lat="43.34884" lon="-1.62461">
        <ele>7</ele>
        <time>2020-04-07T12:52:12Z</time>
      </trkpt>
      <trkpt lat="43.34814" lon="-1.62357">
        <ele>8</ele>
        <time>2020-04-07T12:52:30Z</time>
      </trkpt>
      <trkpt lat="43.34795" lon="-1.62322">
        <ele>9</ele>
        <time>2020-04-07T12:52:36Z</time>
      </trkpt>
      <trkpt lat="43.34655" lon="-1.62209">
        <ele>13</ele>
        <time>2020-04-07T12:53:05Z</time>
      </trkpt>
      <trkpt lat="43.34635" lon="-1.62193">
        <ele>14</ele>
        <time>2020-04-07T12:53:09Z</time>
      </trkpt>
      <trkpt lat="43.34535" lon="-1.62116">
        <ele>22</ele>
        <time>2020-04-07T12:53:29Z</time>
      </trkpt>
      <trkpt lat="43.34505" lon="-1.62097">
        <ele>24</ele>
        <time>2020-04-07T12:53:35Z</time>
      </trkpt>
      <trkpt lat="43.34463" lon="-1.62074">
        <ele>24</ele>
        <time>2020-04-07T12:53:44Z</time>
      </trkpt>
      <trkpt lat="43.34406" lon="-1.61984">
        <ele>25</ele>
        <time>2020-04-07T12:54:00Z</time>
      </trkpt>
      <trkpt lat="43.34384" lon="-1.61931">
        <ele>26</ele>
        <time>2020-04-07T12:54:08Z</time>
      </trkpt>
      <trkpt lat="43.34379" lon="-1.61719">
        <ele>24</ele>
        <time>2020-04-07T12:54:35Z</time>
      </trkpt>
      <trkpt lat="43.34377" lon="-1.61689">
        <ele>26</ele>
        <time>2020-04-07T12:54:39Z</time>
      </trkpt>
      <trkpt lat="43.34345" lon="-1.61629">
        <ele>32</ele>
        <time>2020-04-07T12:54:49Z</time>
      </trkpt>
      <trkpt lat="43.34233" lon="-1.61618">
        <ele>42</ele>
        <time>2020-04-07T12:55:09Z</time>
      </trkpt>
      <trkpt lat="43.34092" lon="-1.61623">
        <ele>46</ele>
        <time>2020-04-07T12:55:34Z</time>
      </trkpt>
      <trkpt lat="43.34063" lon="-1.61612">
        <ele>48</ele>
        <time>2020-04-07T12:55:40Z</time>
      </trkpt>
      <trkpt lat="43.34008" lon="-1.61565">
        <ele>57</ele>
        <time>2020-04-07T12:55:51Z</time>
      </trkpt>
      <trkpt lat="43.33942" lon="-1.61559">
        <ele>58</ele>
        <time>2020-04-07T12:56:03Z</time>
      </trkpt>
      <trkpt lat="43.33868" lon="-1.61571">
        <ele>57</ele>
        <time>2020-04-07T12:56:16Z</time>
      </trkpt>
      <trkpt lat="43.33807" lon="-1.61573">
        <ele>62</ele>
        <time>2020-04-07T12:56:27Z</time>
      </trkpt>
      <trkpt lat="43.33696" lon="-1.61543">
        <ele>73</ele>
        <time>2020-04-07T12:56:48Z</time>
      </trkpt>
      <trkpt lat="43.33615" lon="-1.61479">
        <ele>79</ele>
        <time>2020-04-07T12:57:04Z</time>
      </trkpt>
      <trkpt lat="43.33576" lon="-1.61419">
        <ele>85</ele>
        <time>2020-04-07T12:57:15Z</time>
      </trkpt>
      <trkpt lat="43.33546" lon="-1.61387">
        <ele>84</ele>
        <time>2020-04-07T12:57:22Z</time>
      </trkpt>
      <trkpt lat="43.33531" lon="-1.61302">
        <ele>97</ele>
        <time>2020-04-07T12:57:33Z</time>
      </trkpt>
      <trkpt lat="43.3348" lon="-1.61233">
        <ele>101</ele>
        <time>2020-04-07T12:57:47Z</time>
      </trkpt>
      <trkpt lat="43.33448" lon="-1.61219">
        <ele>95</ele>
        <time>2020-04-07T12:57:53Z</time>
      </trkpt>
      <trkpt lat="43.33431" lon="-1.612">
        <ele>94</ele>
        <time>2020-04-07T12:57:57Z</time>
      </trkpt>
      <trkpt lat="43.33423" lon="-1.61102">
        <ele>103</ele>
        <time>2020-04-07T12:58:10Z</time>
      </trkpt>
      <trkpt lat="43.3343" lon="-1.61045">
        <ele>108</ele>
        <time>2020-04-07T12:58:17Z</time>
      </trkpt>
      <trkpt lat="43.33461" lon="-1.60989">
        <ele>121</ele>
        <time>2020-04-07T12:58:27Z</time>
      </trkpt>
      <trkpt lat="43.33441" lon="-1.60956">
        <ele>116</ele>
        <time>2020-04-07T12:58:33Z</time>
      </trkpt>
      <trkpt lat="43.33442" lon="-1.60876">
        <ele>127</ele>
        <time>2020-04-07T12:58:44Z</time>
      </trkpt>
      <trkpt lat="43.33434" lon="-1.60846">
        <ele>130</ele>
        <time>2020-04-07T12:58:48Z</time>
      </trkpt>
      <trkpt lat="43.3339" lon="-1.60852">
        <ele>119</ele>
        <time>2020-04-07T12:58:56Z</time>
      </trkpt>
      <trkpt lat="43.33359" lon="-1.60813">
        <ele>122</ele>
        <time>2020-04-07T12:59:04Z</time>
      </trkpt>
      <trkpt lat="43.33344" lon="-1.60746">
        <ele>131</ele>
        <time>2020-04-07T12:59:13Z</time>
      </trkpt>
      <trkpt lat="43.33317" lon="-1.60728">
        <ele>129</ele>
        <time>2020-04-07T12:59:18Z</time>
      </trkpt>
      <trkpt lat="43.33243" lon="-1.6057">
        <ele>140</ele>
        <time>2020-04-07T12:59:43Z</time>
      </trkpt>
      <trkpt lat="43.33244" lon="-1.60513">
        <ele>148</ele>
        <time>2020-04-07T12:59:50Z</time>
      </trkpt>
      <trkpt lat="43.33199" lon="-1.60488">
        <ele>139</ele>
        <time>2020-04-07T12:59:59Z</time>
      </trkpt>
      <trkpt lat="43.33178" lon="-1.60435">
        <ele>142</ele>
        <time>2020-04-07T13:00:07Z</time>
      </trkpt>
      <trkpt lat="43.33143" lon="-1.60316">
        <ele>150</ele>
        <time>2020-04-07T13:00:24Z</time>
      </trkpt>
      <trkpt lat="43.3311" lon="-1.60273">
        <ele>151</ele>
        <time>2020-04-07T13:00:32Z</time>
      </trkpt>
      <trkpt lat="43.33019" lon="-1.60227">
        <ele>155</ele>
        <time>2020-04-07T13:00:49Z</time>
      </trkpt>
      <trkpt lat="43.32899" lon="-1.60204">
        <ele>162</ele>
        <time>2020-04-07T13:01:11Z</time>
      </trkpt>
      <trkpt lat="43.32751" lon="-1.60178">
        <ele>166</ele>
        <time>2020-04-07T13:01:37Z</time>
      </trkpt>
      <trkpt lat="43.32685" lon="-1.60134">
        <ele>169</ele>
        <time>2020-04-07T13:01:50Z</time>
      </trkpt>
      <trkpt lat="43.32561" lon="-1.60087">
        <ele>170</ele>
        <time>2020-04-07T13:02:13Z</time>
      </trkpt>
      <trkpt lat="43.32517" lon="-1.60054">
        <ele>174</ele>
        <time>2020-04-07T13:02:22Z</time>
      </trkpt>
      <trkpt lat="43.32491" lon="-1.60061">
        <ele>173</ele>
        <time>2020-04-07T13:02:27Z</time>
      </trkpt>
      <trkpt lat="43.32436" lon="-1.60104">
        <ele>179</ele>
        <time>2020-04-07T13:02:38Z</time>
      </trkpt>
      <trkpt lat="43.32387" lon="-1.60043">
        <ele>180</ele>
        <time>2020-04-07T13:02:50Z</time>
      </trkpt>
      <trkpt lat="43.32364" lon="-1.60026">
        <ele>182</ele>
        <time>2020-04-07T13:02:55Z</time>
      </trkpt>
      <trkpt lat="43.32286" lon="-1.59984">
        <ele>184</ele>
        <time>2020-04-07T13:03:10Z</time>
      </trkpt>
      <trkpt lat="43.32252" lon="-1.59949">
        <ele>180</ele>
        <time>2020-04-07T13:03:18Z</time>
      </trkpt>
      <trkpt lat="43.32203" lon="-1.5999">
        <ele>191</ele>
        <time>2020-04-07T13:03:29Z</time>
      </trkpt>
      <trkpt lat="43.32187" lon="-1.5999">
        <ele>192</ele>
        <time>2020-04-07T13:03:32Z</time>
      </trkpt>
      <trkpt lat="43.32182" lon="-1.59969">
        <ele>189</ele>
        <time>2020-04-07T13:03:35Z</time>
      </trkpt>
      <trkpt lat="43.3219" lon="-1.59928">
        <ele>182</ele>
        <time>2020-04-07T13:03:40Z</time>
      </trkpt>
      <trkpt lat="43.32172" lon="-1.59841">
        <ele>177</ele>
        <time>2020-04-07T13:03:52Z</time>
      </trkpt>
      <trkpt lat="43.32138" lon="-1.59812">
        <ele>174</ele>
        <time>2020-04-07T13:03:59Z</time>
      </trkpt>
      <trkpt lat="43.32052" lon="-1.59779">
        <ele>167</ele>
        <time>2020-04-07T13:04:15Z</time>
      </trkpt>
      <trkpt lat="43.32027" lon="-1.59816">
        <ele>173</ele>
        <time>2020-04-07T13:04:22Z</time>
      </trkpt>
      <trkpt lat="43.31976" lon="-1.59855">
        <ele>178</ele>
        <time>2020-04-07T13:04:32Z</time>
      </trkpt>
      <trkpt lat="43.31963" lon="-1.59854">
        <ele>178</ele>
        <time>2020-04-07T13:04:35Z</time>
      </trkpt>
      <trkpt lat="43.31893" lon="-1.59824">
        <ele>172</ele>
        <time>2020-04-07T13:04:48Z</time>
      </trkpt>
      <trkpt lat="43.31879" lon="-1.5981">
        <ele>171</ele>
        <time>2020-04-07T13:04:52Z</time>
      </trkpt>
      <trkpt lat="43.31867" lon="-1.59787">
        <ele>167</ele>
        <time>2020-04-07T13:04:55Z</time>
      </trkpt>
      <trkpt lat="43.31813" lon="-1.59751">
        <ele>167</ele>
        <time>2020-04-07T13:05:06Z</time>
      </trkpt>
      <trkpt lat="43.31777" lon="-1.5972">
        <ele>167</ele>
        <time>2020-04-07T13:05:14Z</time>
      </trkpt>
      <trkpt lat="43.31747" lon="-1.59692">
        <ele>166</ele>
        <time>2020-04-07T13:05:22Z</time>
      </trkpt>
      <trkpt lat="43.31725" lon="-1.59656">
        <ele>167</ele>
        <time>2020-04-07T13:05:29Z</time>
      </trkpt>
      <trkpt lat="43.31739" lon="-1.59601">
        <ele>157</ele>
        <time>2020-04-07T13:05:36Z</time>
      </trkpt>
      <trkpt lat="43.31702" lon="-1.59527">
        <ele>155</ele>
        <time>2020-04-07T13:05:49Z</time>
      </trkpt>
      <trkpt lat="43.31658" lon="-1.59487">
        <ele>155</ele>
        <time>2020-04-07T13:05:58Z</time>
      </trkpt>
      <trkpt lat="43.31616" lon="-1.59461">
        <ele>156</ele>
        <time>2020-04-07T13:06:06Z</time>
      </trkpt>
      <trkpt lat="43.31587" lon="-1.59417">
        <ele>151</ele>
        <time>2020-04-07T13:06:14Z</time>
      </trkpt>
      <trkpt lat="43.31537" lon="-1.59372">
        <ele>155</ele>
        <time>2020-04-07T13:06:26Z</time>
      </trkpt>
      <trkpt lat="43.31514" lon="-1.59346">
        <ele>158</ele>
        <time>2020-04-07T13:06:31Z</time>
      </trkpt>
      <trkpt lat="43.31542" lon="-1.59296">
        <ele>148</ele>
        <time>2020-04-07T13:06:40Z</time>
      </trkpt>
      <trkpt lat="43.31587" lon="-1.59177">
        <ele>136</ele>
        <time>2020-04-07T13:06:57Z</time>
      </trkpt>
      <trkpt lat="43.31602" lon="-1.59111">
        <ele>137</ele>
        <time>2020-04-07T13:07:06Z</time>
      </trkpt>
      <trkpt lat="43.31657" lon="-1.5909">
        <ele>131</ele>
        <time>2020-04-07T13:07:17Z</time>
      </trkpt>
      <trkpt lat="43.31715" lon="-1.59028">
        <ele>132</ele>
        <time>2020-04-07T13:07:30Z</time>
      </trkpt>
      <trkpt lat="43.31763" lon="-1.59035">
        <ele>126</ele>
        <time>2020-04-07T13:07:39Z</time>
      </trkpt>
      <trkpt lat="43.31804" lon="-1.58995">
        <ele>129</ele>
        <time>2020-04-07T13:07:48Z</time>
      </trkpt>
      <trkpt lat="43.31814" lon="-1.58961">
        <ele>128</ele>
        <time>2020-04-07T13:07:53Z</time>
      </trkpt>
      <trkpt lat="43.31793" lon="-1.58932">
        <ele>128</ele>
        <time>2020-04-07T13:07:58Z</time>
      </trkpt>
      <trkpt lat="43.31763" lon="-1.58929">
        <ele>128</ele>
        <time>2020-04-07T13:08:04Z</time>
      </trkpt>
      <trkpt lat="43.31695" lon="-1.58873">
        <ele>123</ele>
        <time>2020-04-07T13:08:18Z</time>
      </trkpt>
      <trkpt lat="43.31613" lon="-1.58856">
        <ele>119</ele>
        <time>2020-04-07T13:08:33Z</time>
      </trkpt>
      <trkpt lat="43.31515" lon="-1.58856">
        <ele>114</ele>
        <time>2020-04-07T13:08:50Z</time>
      </trkpt>
      <trkpt lat="43.31489" lon="-1.58852">
        <ele>111</ele>
        <time>2020-04-07T13:08:55Z</time>
      </trkpt>
      <trkpt lat="43.31501" lon="-1.58834">
        <ele>107</ele>
        <time>2020-04-07T13:08:59Z</time>
      </trkpt>
      <trkpt lat="43.31617" lon="-1.58807">
        <ele>107</ele>
        <time>2020-04-07T13:09:20Z</time>
      </trkpt>
      <trkpt lat="43.31716" lon="-1.58797">
        <ele>109</ele>
        <time>2020-04-07T13:09:38Z</time>
      </trkpt>
      <trkpt lat="43.31696" lon="-1.58753">
        <ele>100</ele>
        <time>2020-04-07T13:09:46Z</time>
      </trkpt>
      <trkpt lat="43.3163" lon="-1.58688">
        <ele>88</ele>
        <time>2020-04-07T13:10:00Z</time>
      </trkpt>
      <trkpt lat="43.31582" lon="-1.58483">
        <ele>72</ele>
        <time>2020-04-07T13:10:28Z</time>
      </trkpt>
      <trkpt lat="43.31543" lon="-1.5839">
        <ele>67</ele>
        <time>2020-04-07T13:10:42Z</time>
      </trkpt>
      <trkpt lat="43.31472" lon="-1.58315">
        <ele>62</ele>
        <time>2020-04-07T13:10:58Z</time>
      </trkpt>
      <trkpt lat="43.31459" lon="-1.58313">
        <ele>62</ele>
        <time>2020-04-07T13:11:01Z</time>
      </trkpt>
      <trkpt lat="43.31425" lon="-1.58356">
        <ele>61</ele>
        <time>2020-04-07T13:11:10Z</time>
      </trkpt>
      <trkpt lat="43.31351" lon="-1.58408">
        <ele>61</ele>
        <time>2020-04-07T13:11:24Z</time>
      </trkpt>
      <trkpt lat="43.31277" lon="-1.58432">
        <ele>61</ele>
        <time>2020-04-07T13:11:38Z</time>
      </trkpt>
      <trkpt lat="43.31177" lon="-1.58415">
        <ele>60</ele>
        <time>2020-04-07T13:11:56Z</time>
      </trkpt>
      <trkpt lat="43.31139" lon="-1.5842">
        <ele>60</ele>
        <time>2020-04-07T13:12:03Z</time>
      </trkpt>
      <trkpt lat="43.31111" lon="-1.5843">
        <ele>59</ele>
        <time>2020-04-07T13:12:08Z</time>
      </trkpt>
      <trkpt lat="43.30918" lon="-1.58569">
        <ele>65</ele>
        <time>2020-04-07T13:12:47Z</time>
      </trkpt>
      <trkpt lat="43.30871" lon="-1.58611">
        <ele>67</ele>
        <time>2020-04-07T13:12:57Z</time>
      </trkpt>
      <trkpt lat="43.30775" lon="-1.58762">
        <ele>73</ele>
        <time>2020-04-07T13:13:23Z</time>
      </trkpt>
      <trkpt lat="43.3071" lon="-1.58871">
        <ele>78</ele>
        <time>2020-04-07T13:13:41Z</time>
      </trkpt>
      <trkpt lat="43.30675" lon="-1.5894">
        <ele>81</ele>
        <time>2020-04-07T13:13:52Z</time>
      </trkpt>
      <trkpt lat="43.3053" lon="-1.5916">
        <ele>90</ele>
        <time>2020-04-07T13:14:30Z</time>
      </trkpt>
      <trkpt lat="43.30469" lon="-1.59235">
        <ele>96</ele>
        <time>2020-04-07T13:14:45Z</time>
      </trkpt>
      <trkpt lat="43.3041" lon="-1.59275">
        <ele>99</ele>
        <time>2020-04-07T13:14:57Z</time>
      </trkpt>
      <trkpt lat="43.30294" lon="-1.59278">
        <ele>102</ele>
        <time>2020-04-07T13:15:18Z</time>
      </trkpt>
      <trkpt lat="43.30254" lon="-1.5926">
        <ele>101</ele>
        <time>2020-04-07T13:15:25Z</time>
      </trkpt>
      <trkpt lat="43.30218" lon="-1.59207">
        <ele>101</ele>
        <time>2020-04-07T13:15:35Z</time>
      </trkpt>
      <trkpt lat="43.30164" lon="-1.59116">
        <ele>103</ele>
        <time>2020-04-07T13:15:50Z</time>
      </trkpt>
      <trkpt lat="43.30111" lon="-1.59052">
        <ele>103</ele>
        <time>2020-04-07T13:16:02Z</time>
      </trkpt>
      <trkpt lat="43.30044" lon="-1.58975">
        <ele>101</ele>
        <time>2020-04-07T13:16:18Z</time>
      </trkpt>
      <trkpt lat="43.2991" lon="-1.58932">
        <ele>98</ele>
        <time>2020-04-07T13:16:43Z</time>
      </trkpt>
      <trkpt lat="43.29805" lon="-1.5896">
        <ele>92</ele>
        <time>2020-04-07T13:17:02Z</time>
      </trkpt>
      <trkpt lat="43.29732" lon="-1.59033">
        <ele>89</ele>
        <time>2020-04-07T13:17:18Z</time>
      </trkpt>
      <trkpt lat="43.29642" lon="-1.59096">
        <ele>86</ele>
        <time>2020-04-07T13:17:36Z</time>
      </trkpt>
      <trkpt lat="43.29476" lon="-1.59238">
        <ele>90</ele>
        <time>2020-04-07T13:18:11Z</time>
      </trkpt>
      <trkpt lat="43.29407" lon="-1.59267">
        <ele>95</ele>
        <time>2020-04-07T13:18:24Z</time>
      </trkpt>
      <trkpt lat="43.29323" lon="-1.59336">
        <ele>102</ele>
        <time>2020-04-07T13:18:41Z</time>
      </trkpt>
      <trkpt lat="43.29268" lon="-1.59359">
        <ele>109</ele>
        <time>2020-04-07T13:18:52Z</time>
      </trkpt>
      <trkpt lat="43.29153" lon="-1.59461">
        <ele>122</ele>
        <time>2020-04-07T13:19:16Z</time>
      </trkpt>
      <trkpt lat="43.29116" lon="-1.59517">
        <ele>126</ele>
        <time>2020-04-07T13:19:26Z</time>
      </trkpt>
      <trkpt lat="43.29058" lon="-1.59546">
        <ele>119</ele>
        <time>2020-04-07T13:19:37Z</time>
      </trkpt>
      <trkpt lat="43.29026" lon="-1.59586">
        <ele>121</ele>
        <time>2020-04-07T13:19:45Z</time>
      </trkpt>
      <trkpt lat="43.29008" lon="-1.59701">
        <ele>134</ele>
        <time>2020-04-07T13:20:00Z</time>
      </trkpt>
      <trkpt lat="43.28967" lon="-1.59747">
        <ele>134</ele>
        <time>2020-04-07T13:20:09Z</time>
      </trkpt>
      <trkpt lat="43.28877" lon="-1.59844">
        <ele>129</ele>
        <time>2020-04-07T13:20:30Z</time>
      </trkpt>
      <trkpt lat="43.28829" lon="-1.59936">
        <ele>126</ele>
        <time>2020-04-07T13:20:45Z</time>
      </trkpt>
      <trkpt lat="43.28781" lon="-1.60064">
        <ele>126</ele>
        <time>2020-04-07T13:21:03Z</time>
      </trkpt>
      <trkpt lat="43.28724" lon="-1.60189">
        <ele>129</ele>
        <time>2020-04-07T13:21:22Z</time>
      </trkpt>
      <trkpt lat="43.28619" lon="-1.60362">
        <ele>119</ele>
        <time>2020-04-07T13:21:52Z</time>
      </trkpt>
      <trkpt lat="43.28606" lon="-1.60444">
        <ele>119</ele>
        <time>2020-04-07T13:22:03Z</time>
      </trkpt>
      <trkpt lat="43.28599" lon="-1.6056">
        <ele>123</ele>
        <time>2020-04-07T13:22:18Z</time>
      </trkpt>
      <trkpt lat="43.28511" lon="-1.60675">
        <ele>126</ele>
        <time>2020-04-07T13:22:40Z</time>
      </trkpt>
      <trkpt lat="43.28498" lon="-1.60776">
        <ele>124</ele>
        <time>2020-04-07T13:22:53Z</time>
      </trkpt>
      <trkpt lat="43.2851" lon="-1.60875">
        <ele>126</ele>
        <time>2020-04-07T13:23:07Z</time>
      </trkpt>
      <trkpt lat="43.28497" lon="-1.60952">
        <ele>129</ele>
        <time>2020-04-07T13:23:17Z</time>
      </trkpt>
      <trkpt lat="43.2843" lon="-1.61027">
        <ele>139</ele>
        <time>2020-04-07T13:23:33Z</time>
      </trkpt>
      <trkpt lat="43.28407" lon="-1.61164">
        <ele>140</ele>
        <time>2020-04-07T13:23:51Z</time>
      </trkpt>
      <trkpt lat="43.28399" lon="-1.6124">
        <ele>144</ele>
        <time>2020-04-07T13:24:01Z</time>
      </trkpt>
      <trkpt lat="43.28375" lon="-1.61343">
        <ele>150</ele>
        <time>2020-04-07T13:24:15Z</time>
      </trkpt>
      <trkpt lat="43.28387" lon="-1.61429">
        <ele>147</ele>
        <time>2020-04-07T13:24:26Z</time>
      </trkpt>
      <trkpt lat="43.28365" lon="-1.61516">
        <ele>146</ele>
        <time>2020-04-07T13:24:38Z</time>
      </trkpt>
      <trkpt lat="43.28361" lon="-1.61561">
        <ele>148</ele>
        <time>2020-04-07T13:24:44Z</time>
      </trkpt>
      <trkpt lat="43.28424" lon="-1.61736">
        <ele>150</ele>
        <time>2020-04-07T13:25:10Z</time>
      </trkpt>
      <trkpt lat="43.28471" lon="-1.61898">
        <ele>150</ele>
        <time>2020-04-07T13:25:32Z</time>
      </trkpt>
      <trkpt lat="43.28464" lon="-1.62119">
        <ele>155</ele>
        <time>2020-04-07T13:26:01Z</time>
      </trkpt>
      <trkpt lat="43.28455" lon="-1.62203">
        <ele>158</ele>
        <time>2020-04-07T13:26:12Z</time>
      </trkpt>
      <trkpt lat="43.28444" lon="-1.62498">
        <ele>176</ele>
        <time>2020-04-07T13:26:51Z</time>
      </trkpt>
      <trkpt lat="43.28372" lon="-1.6266">
        <ele>183</ele>
        <time>2020-04-07T13:27:16Z</time>
      </trkpt>
      <trkpt lat="43.28296" lon="-1.62786">
        <ele>192</ele>
        <time>2020-04-07T13:27:38Z</time>
      </trkpt>
      <trkpt lat="43.28288" lon="-1.62842">
        <ele>192</ele>
        <time>2020-04-07T13:27:45Z</time>
      </trkpt>
      <trkpt lat="43.28265" lon="-1.62887">
        <ele>192</ele>
        <time>2020-04-07T13:27:52Z</time>
      </trkpt>
      <trkpt lat="43.2818" lon="-1.63008">
        <ele>200</ele>
        <time>2020-04-07T13:28:14Z</time>
      </trkpt>
      <trkpt lat="43.28077" lon="-1.63049">
        <ele>216</ele>
        <time>2020-04-07T13:28:33Z</time>
      </trkpt>
      <trkpt lat="43.28046" lon="-1.63074">
        <ele>219</ele>
        <time>2020-04-07T13:28:40Z</time>
      </trkpt>
      <trkpt lat="43.28048" lon="-1.6313">
        <ele>220</ele>
        <time>2020-04-07T13:28:47Z</time>
      </trkpt>
      <trkpt lat="43.28059" lon="-1.63148">
        <ele>219</ele>
        <time>2020-04-07T13:28:51Z</time>
      </trkpt>
      <trkpt lat="43.28099" lon="-1.6315">
        <ele>214</ele>
        <time>2020-04-07T13:28:58Z</time>
      </trkpt>
      <trkpt lat="43.28132" lon="-1.63136">
        <ele>212</ele>
        <time>2020-04-07T13:29:04Z</time>
      </trkpt>
      <trkpt lat="43.2821" lon="-1.63203">
        <ele>220</ele>
        <time>2020-04-07T13:29:20Z</time>
      </trkpt>
      <trkpt lat="43.28244" lon="-1.63228">
        <ele>222</ele>
        <time>2020-04-07T13:29:27Z</time>
      </trkpt>
      <trkpt lat="43.28304" lon="-1.63335">
        <ele>216</ele>
        <time>2020-04-07T13:29:45Z</time>
      </trkpt>
      <trkpt lat="43.2831" lon="-1.63374">
        <ele>213</ele>
        <time>2020-04-07T13:29:50Z</time>
      </trkpt>
      <trkpt lat="43.28318" lon="-1.6354">
        <ele>201</ele>
        <time>2020-04-07T13:30:12Z</time>
      </trkpt>
      <trkpt lat="43.28348" lon="-1.63612">
        <ele>207</ele>
        <time>2020-04-07T13:30:23Z</time>
      </trkpt>
      <trkpt lat="43.28346" lon="-1.63643">
        <ele>207</ele>
        <time>2020-04-07T13:30:27Z</time>
      </trkpt>
      <trkpt lat="43.28295" lon="-1.63726">
        <ele>191</ele>
        <time>2020-04-07T13:30:41Z</time>
      </trkpt>
      <trkpt lat="43.28288" lon="-1.63762">
        <ele>188</ele>
        <time>2020-04-07T13:30:46Z</time>
      </trkpt>
      <trkpt lat="43.28295" lon="-1.63863">
        <ele>182</ele>
        <time>2020-04-07T13:30:59Z</time>
      </trkpt>
      <trkpt lat="43.28326" lon="-1.63916">
        <ele>184</ele>
        <time>2020-04-07T13:31:08Z</time>
      </trkpt>
      <trkpt lat="43.28345" lon="-1.63999">
        <ele>173</ele>
        <time>2020-04-07T13:31:19Z</time>
      </trkpt>
      <trkpt lat="43.28358" lon="-1.64015">
        <ele>173</ele>
        <time>2020-04-07T13:31:23Z</time>
      </trkpt>
      <trkpt lat="43.28454" lon="-1.64072">
        <ele>169</ele>
        <time>2020-04-07T13:31:41Z</time>
      </trkpt>
      <trkpt lat="43.28475" lon="-1.6408">
        <ele>166</ele>
        <time>2020-04-07T13:31:45Z</time>
      </trkpt>
      <trkpt lat="43.28536" lon="-1.64093">
        <ele>169</ele>
        <time>2020-04-07T13:31:56Z</time>
      </trkpt>
      <trkpt lat="43.28576" lon="-1.6414">
        <ele>160</ele>
        <time>2020-04-07T13:32:06Z</time>
      </trkpt>
      <trkpt lat="43.28629" lon="-1.6417">
        <ele>158</ele>
        <time>2020-04-07T13:32:16Z</time>
      </trkpt>
      <trkpt lat="43.28649" lon="-1.64206">
        <ele>156</ele>
        <time>2020-04-07T13:32:22Z</time>
      </trkpt>
      <trkpt lat="43.2865" lon="-1.64271">
        <ele>152</ele>
        <time>2020-04-07T13:32:30Z</time>
      </trkpt>
      <trkpt lat="43.28636" lon="-1.64343">
        <ele>157</ele>
        <time>2020-04-07T13:32:40Z</time>
      </trkpt>
      <trkpt lat="43.28554" lon="-1.64497">
        <ele>152</ele>
        <time>2020-04-07T13:33:05Z</time>
      </trkpt>
      <trkpt lat="43.28532" lon="-1.64516">
        <ele>147</ele>
        <time>2020-04-07T13:33:10Z</time>
      </trkpt>
      <trkpt lat="43.28514" lon="-1.6457">
        <ele>148</ele>
        <time>2020-04-07T13:33:18Z</time>
      </trkpt>
      <trkpt lat="43.28447" lon="-1.64631">
        <ele>133</ele>
        <time>2020-04-07T13:33:32Z</time>
      </trkpt>
      <trkpt lat="43.28416" lon="-1.64671">
        <ele>127</ele>
        <time>2020-04-07T13:33:40Z</time>
      </trkpt>
      <trkpt lat="43.28412" lon="-1.64709">
        <ele>129</ele>
        <time>2020-04-07T13:33:45Z</time>
      </trkpt>
      <trkpt lat="43.2837" lon="-1.64777">
        <ele>128</ele>
        <time>2020-04-07T13:33:57Z</time>
      </trkpt>
      <trkpt lat="43.28328" lon="-1.64834">
        <ele>130</ele>
        <time>2020-04-07T13:34:07Z</time>
      </trkpt>
      <trkpt lat="43.28279" lon="-1.64859">
        <ele>121</ele>
        <time>2020-04-07T13:34:17Z</time>
      </trkpt>
      <trkpt lat="43.28262" lon="-1.6488">
        <ele>117</ele>
        <time>2020-04-07T13:34:21Z</time>
      </trkpt>
      <trkpt lat="43.28214" lon="-1.65131">
        <ele>115</ele>
        <time>2020-04-07T13:34:55Z</time>
      </trkpt>
      <trkpt lat="43.28185" lon="-1.65221">
        <ele>114</ele>
        <time>2020-04-07T13:35:07Z</time>
      </trkpt>
      <trkpt lat="43.28153" lon="-1.65302">
        <ele>105</ele>
        <time>2020-04-07T13:35:19Z</time>
      </trkpt>
      <trkpt lat="43.28147" lon="-1.65372">
        <ele>102</ele>
        <time>2020-04-07T13:35:29Z</time>
      </trkpt>
      <trkpt lat="43.28168" lon="-1.65522">
        <ele>97</ele>
        <time>2020-04-07T13:35:48Z</time>
      </trkpt>
      <trkpt lat="43.28192" lon="-1.65573">
        <ele>100</ele>
        <time>2020-04-07T13:35:56Z</time>
      </trkpt>
      <trkpt lat="43.28237" lon="-1.65673">
        <ele>96</ele>
        <time>2020-04-07T13:36:12Z</time>
      </trkpt>
      <trkpt lat="43.28244" lon="-1.65691">
        <ele>96</ele>
        <time>2020-04-07T13:36:14Z</time>
      </trkpt>
      <trkpt lat="43.2825" lon="-1.65787">
        <ele>96</ele>
        <time>2020-04-07T13:36:27Z</time>
      </trkpt>
      <trkpt lat="43.28233" lon="-1.65867">
        <ele>96</ele>
        <time>2020-04-07T13:36:38Z</time>
      </trkpt>
      <trkpt lat="43.28224" lon="-1.6593">
        <ele>92</ele>
        <time>2020-04-07T13:36:46Z</time>
      </trkpt>
      <trkpt lat="43.28226" lon="-1.65984">
        <ele>88</ele>
        <time>2020-04-07T13:36:53Z</time>
      </trkpt>
      <trkpt lat="43.28244" lon="-1.66009">
        <ele>88</ele>
        <time>2020-04-07T13:36:58Z</time>
      </trkpt>
      <trkpt lat="43.28284" lon="-1.66023">
        <ele>90</ele>
        <time>2020-04-07T13:37:05Z</time>
      </trkpt>
      <trkpt lat="43.2829" lon="-1.66037">
        <ele>90</ele>
        <time>2020-04-07T13:37:07Z</time>
      </trkpt>
      <trkpt lat="43.28294" lon="-1.6606">
        <ele>90</ele>
        <time>2020-04-07T13:37:11Z</time>
      </trkpt>
      <trkpt lat="43.2827" lon="-1.66134">
        <ele>92</ele>
        <time>2020-04-07T13:37:21Z</time>
      </trkpt>
      <trkpt lat="43.28252" lon="-1.66178">
        <ele>90</ele>
        <time>2020-04-07T13:37:28Z</time>
      </trkpt>
      <trkpt lat="43.28239" lon="-1.66345">
        <ele>96</ele>
        <time>2020-04-07T13:37:50Z</time>
      </trkpt>
      <trkpt lat="43.28207" lon="-1.66474">
        <ele>84</ele>
        <time>2020-04-07T13:38:07Z</time>
      </trkpt>
      <trkpt lat="43.28214" lon="-1.66578">
        <ele>83</ele>
        <time>2020-04-07T13:38:21Z</time>
      </trkpt>
      <trkpt lat="43.28232" lon="-1.66796">
        <ele>74</ele>
        <time>2020-04-07T13:38:49Z</time>
      </trkpt>
      <trkpt lat="43.28272" lon="-1.66971">
        <ele>71</ele>
        <time>2020-04-07T13:39:13Z</time>
      </trkpt>
      <trkpt lat="43.2827" lon="-1.67021">
        <ele>68</ele>
        <time>2020-04-07T13:39:20Z</time>
      </trkpt>
      <trkpt lat="43.28266" lon="-1.67138">
        <ele>67</ele>
        <time>2020-04-07T13:39:35Z</time>
      </trkpt>
      <trkpt lat="43.28274" lon="-1.67233">
        <ele>66</ele>
        <time>2020-04-07T13:39:47Z</time>
      </trkpt>
      <trkpt lat="43.2825" lon="-1.67399">
        <ele>63</ele>
        <time>2020-04-07T13:40:09Z</time>
      </trkpt>
      <trkpt lat="43.28222" lon="-1.67451">
        <ele>59</ele>
        <time>2020-04-07T13:40:18Z</time>
      </trkpt>
      <trkpt lat="43.28213" lon="-1.67523">
        <ele>57</ele>
        <time>2020-04-07T13:40:27Z</time>
      </trkpt>
      <trkpt lat="43.28193" lon="-1.67551">
        <ele>53</ele>
        <time>2020-04-07T13:40:32Z</time>
      </trkpt>
      <trkpt lat="43.28181" lon="-1.67596">
        <ele>50</ele>
        <time>2020-04-07T13:40:39Z</time>
      </trkpt>
      <trkpt lat="43.28189" lon="-1.67645">
        <ele>50</ele>
        <time>2020-04-07T13:40:45Z</time>
      </trkpt>
      <trkpt lat="43.28169" lon="-1.67753">
        <ele>44</ele>
        <time>2020-04-07T13:41:00Z</time>
      </trkpt>
      <trkpt lat="43.28227" lon="-1.67846">
        <ele>45</ele>
        <time>2020-04-07T13:41:19Z</time>
      </trkpt>
      <trkpt lat="43.2828" lon="-1.67877">
        <ele>46</ele>
        <time>2020-04-07T13:41:30Z</time>
      </trkpt>
      <trkpt lat="43.28293" lon="-1.67884">
        <ele>47</ele>
        <time>2020-04-07T13:41:32Z</time>
      </trkpt>
      <trkpt lat="43.28451" lon="-1.6796">
        <ele>72</ele>
        <time>2020-04-07T13:42:02Z</time>
      </trkpt>
      <trkpt lat="43.28536" lon="-1.67964">
        <ele>72</ele>
        <time>2020-04-07T13:42:17Z</time>
      </trkpt>
      <trkpt lat="43.28579" lon="-1.67945">
        <ele>65</ele>
        <time>2020-04-07T13:42:26Z</time>
      </trkpt>
      <trkpt lat="43.28629" lon="-1.68004">
        <ele>74</ele>
        <time>2020-04-07T13:42:37Z</time>
      </trkpt>
      <trkpt lat="43.28709" lon="-1.68004">
        <ele>77</ele>
        <time>2020-04-07T13:42:52Z</time>
      </trkpt>
      <trkpt lat="43.28758" lon="-1.67996">
        <ele>81</ele>
        <time>2020-04-07T13:43:01Z</time>
      </trkpt>
      <trkpt lat="43.28841" lon="-1.68008">
        <ele>87</ele>
        <time>2020-04-07T13:43:17Z</time>
      </trkpt>
      <trkpt lat="43.28898" lon="-1.68034">
        <ele>92</ele>
        <time>2020-04-07T13:43:27Z</time>
      </trkpt>
      <trkpt lat="43.28988" lon="-1.68062">
        <ele>91</ele>
        <time>2020-04-07T13:43:44Z</time>
      </trkpt>
      <trkpt lat="43.29042" lon="-1.68245">
        <ele>101</ele>
        <time>2020-04-07T13:44:10Z</time>
      </trkpt>
      <trkpt lat="43.29015" lon="-1.68376">
        <ele>123</ele>
        <time>2020-04-07T13:44:28Z</time>
      </trkpt>
      <trkpt lat="43.29062" lon="-1.68399">
        <ele>109</ele>
        <time>2020-04-07T13:44:37Z</time>
      </trkpt>
      <trkpt lat="43.29135" lon="-1.6848">
        <ele>117</ele>
        <time>2020-04-07T13:44:54Z</time>
      </trkpt>
      <trkpt lat="43.2918" lon="-1.68492">
        <ele>111</ele>
        <time>2020-04-07T13:45:02Z</time>
      </trkpt>
      <trkpt lat="43.29163" lon="-1.68557">
        <ele>123</ele>
        <time>2020-04-07T13:45:12Z</time>
      </trkpt>
      <trkpt lat="43.29128" lon="-1.68594">
        <ele>136</ele>
        <time>2020-04-07T13:45:21Z</time>
      </trkpt>
      <trkpt lat="43.29131" lon="-1.68677">
        <ele>146</ele>
        <time>2020-04-07T13:45:32Z</time>
      </trkpt>
      <trkpt lat="43.29167" lon="-1.68669">
        <ele>134</ele>
        <time>2020-04-07T13:45:38Z</time>
      </trkpt>
      <trkpt lat="43.29129" lon="-1.68706">
        <ele>152</ele>
        <time>2020-04-07T13:45:49Z</time>
      </trkpt>
      <trkpt lat="43.29094" lon="-1.68631">
        <ele>150</ele>
        <time>2020-04-07T13:46:01Z</time>
      </trkpt>
      <trkpt lat="43.29109" lon="-1.68539">
        <ele>134</ele>
        <time>2020-04-07T13:46:13Z</time>
      </trkpt>
      <trkpt lat="43.29075" lon="-1.68516">
        <ele>137</ele>
        <time>2020-04-07T13:46:20Z</time>
      </trkpt>
      <trkpt lat="43.28988" lon="-1.68549">
        <ele>162</ele>
        <time>2020-04-07T13:46:39Z</time>
      </trkpt>
      <trkpt lat="43.29042" lon="-1.68537">
        <ele>147</ele>
        <time>2020-04-07T13:46:49Z</time>
      </trkpt>
      <trkpt lat="43.29065" lon="-1.68575">
        <ele>150</ele>
        <time>2020-04-07T13:46:57Z</time>
      </trkpt>
      <trkpt lat="43.29056" lon="-1.68669">
        <ele>166</ele>
        <time>2020-04-07T13:47:11Z</time>
      </trkpt>
      <trkpt lat="43.29081" lon="-1.68728">
        <ele>167</ele>
        <time>2020-04-07T13:47:20Z</time>
      </trkpt>
      <trkpt lat="43.29086" lon="-1.68791">
        <ele>177</ele>
        <time>2020-04-07T13:47:29Z</time>
      </trkpt>
      <trkpt lat="43.29114" lon="-1.68795">
        <ele>174</ele>
        <time>2020-04-07T13:47:34Z</time>
      </trkpt>
      <trkpt lat="43.29205" lon="-1.68826">
        <ele>166</ele>
        <time>2020-04-07T13:47:53Z</time>
      </trkpt>
      <trkpt lat="43.29228" lon="-1.68895">
        <ele>176</ele>
        <time>2020-04-07T13:48:03Z</time>
      </trkpt>
      <trkpt lat="43.29288" lon="-1.68993">
        <ele>187</ele>
        <time>2020-04-07T13:48:21Z</time>
      </trkpt>
      <trkpt lat="43.29326" lon="-1.68974">
        <ele>175</ele>
        <time>2020-04-07T13:48:28Z</time>
      </trkpt>
      <trkpt lat="43.29359" lon="-1.6905">
        <ele>192</ele>
        <time>2020-04-07T13:48:42Z</time>
      </trkpt>
      <trkpt lat="43.29394" lon="-1.69064">
        <ele>192</ele>
        <time>2020-04-07T13:48:49Z</time>
      </trkpt>
      <trkpt lat="43.29459" lon="-1.69085">
        <ele>194</ele>
        <time>2020-04-07T13:49:04Z</time>
      </trkpt>
      <trkpt lat="43.29482" lon="-1.6908">
        <ele>192</ele>
        <time>2020-04-07T13:49:09Z</time>
      </trkpt>
      <trkpt lat="43.29548" lon="-1.69128">
        <ele>211</ele>
        <time>2020-04-07T13:49:23Z</time>
      </trkpt>
      <trkpt lat="43.29562" lon="-1.69053">
        <ele>198</ele>
        <time>2020-04-07T13:49:33Z</time>
      </trkpt>
      <trkpt lat="43.29669" lon="-1.68993">
        <ele>208</ele>
        <time>2020-04-07T13:49:55Z</time>
      </trkpt>
      <trkpt lat="43.29697" lon="-1.68946">
        <ele>202</ele>
        <time>2020-04-07T13:50:03Z</time>
      </trkpt>
      <trkpt lat="43.29829" lon="-1.68963">
        <ele>218</ele>
        <time>2020-04-07T13:50:27Z</time>
      </trkpt>
      <trkpt lat="43.29855" lon="-1.68946">
        <ele>215</ele>
        <time>2020-04-07T13:50:32Z</time>
      </trkpt>
      <trkpt lat="43.29895" lon="-1.6897">
        <ele>222</ele>
        <time>2020-04-07T13:50:40Z</time>
      </trkpt>
      <trkpt lat="43.2994" lon="-1.68994">
        <ele>230</ele>
        <time>2020-04-07T13:50:49Z</time>
      </trkpt>
      <trkpt lat="43.29965" lon="-1.69035">
        <ele>243</ele>
        <time>2020-04-07T13:50:55Z</time>
      </trkpt>
      <trkpt lat="43.29977" lon="-1.69037">
        <ele>244</ele>
        <time>2020-04-07T13:50:58Z</time>
      </trkpt>
      <trkpt lat="43.30032" lon="-1.68943">
        <ele>227</ele>
        <time>2020-04-07T13:51:13Z</time>
      </trkpt>
      <trkpt lat="43.3006" lon="-1.68924">
        <ele>228</ele>
        <time>2020-04-07T13:51:19Z</time>
      </trkpt>
      <trkpt lat="43.30117" lon="-1.68926">
        <ele>236</ele>
        <time>2020-04-07T13:51:29Z</time>
      </trkpt>
      <trkpt lat="43.30211" lon="-1.6894">
        <ele>251</ele>
        <time>2020-04-07T13:51:46Z</time>
      </trkpt>
      <trkpt lat="43.30282" lon="-1.68943">
        <ele>255</ele>
        <time>2020-04-07T13:51:59Z</time>
      </trkpt>
      <trkpt lat="43.30332" lon="-1.68969">
        <ele>266</ele>
        <time>2020-04-07T13:52:09Z</time>
      </trkpt>
      <trkpt lat="43.30394" lon="-1.68956">
        <ele>261</ele>
        <time>2020-04-07T13:52:20Z</time>
      </trkpt>
      <trkpt lat="43.30412" lon="-1.68944">
        <ele>257</ele>
        <time>2020-04-07T13:52:24Z</time>
      </trkpt>
      <trkpt lat="43.30473" lon="-1.68905">
        <ele>254</ele>
        <time>2020-04-07T13:52:36Z</time>
      </trkpt>
      <trkpt lat="43.30516" lon="-1.68864">
        <ele>249</ele>
        <time>2020-04-07T13:52:45Z</time>
      </trkpt>
      <trkpt lat="43.30535" lon="-1.68868">
        <ele>250</ele>
        <time>2020-04-07T13:52:49Z</time>
      </trkpt>
      <trkpt lat="43.30583" lon="-1.68966">
        <ele>272</ele>
        <time>2020-04-07T13:53:05Z</time>
      </trkpt>
      <trkpt lat="43.30603" lon="-1.69025">
        <ele>285</ele>
        <time>2020-04-07T13:53:13Z</time>
      </trkpt>
      <trkpt lat="43.30609" lon="-1.69025">
        <ele>284</ele>
        <time>2020-04-07T13:53:14Z</time>
      </trkpt>
      <trkpt lat="43.30632" lon="-1.68978">
        <ele>273</ele>
        <time>2020-04-07T13:53:22Z</time>
      </trkpt>
      <trkpt lat="43.30669" lon="-1.68937">
        <ele>264</ele>
        <time>2020-04-07T13:53:30Z</time>
      </trkpt>
      <trkpt lat="43.30732" lon="-1.68948">
        <ele>274</ele>
        <time>2020-04-07T13:53:42Z</time>
      </trkpt>
      <trkpt lat="43.30772" lon="-1.68974">
        <ele>284</ele>
        <time>2020-04-07T13:53:50Z</time>
      </trkpt>
      <trkpt lat="43.30792" lon="-1.68971">
        <ele>285</ele>
        <time>2020-04-07T13:53:53Z</time>
      </trkpt>
      <trkpt lat="43.30816" lon="-1.68928">
        <ele>282</ele>
        <time>2020-04-07T13:54:01Z</time>
      </trkpt>
      <trkpt lat="43.30851" lon="-1.68942">
        <ele>290</ele>
        <time>2020-04-07T13:54:07Z</time>
      </trkpt>
      <trkpt lat="43.30871" lon="-1.6895">
        <ele>296</ele>
        <time>2020-04-07T13:54:11Z</time>
      </trkpt>
      <trkpt lat="43.30882" lon="-1.68934">
        <ele>297</ele>
        <time>2020-04-07T13:54:14Z</time>
      </trkpt>
      <trkpt lat="43.30881" lon="-1.68915">
        <ele>296</ele>
        <time>2020-04-07T13:54:17Z</time>
      </trkpt>
      <trkpt lat="43.30855" lon="-1.68822">
        <ele>300</ele>
        <time>2020-04-07T13:54:30Z</time>
      </trkpt>
      <trkpt lat="43.30846" lon="-1.68803">
        <ele>301</ele>
        <time>2020-04-07T13:54:33Z</time>
      </trkpt>
      <trkpt lat="43.30816" lon="-1.68809">
        <ele>292</ele>
        <time>2020-04-07T13:54:38Z</time>
      </trkpt>
      <trkpt lat="43.30775" lon="-1.68774">
        <ele>290</ele>
        <time>2020-04-07T13:54:47Z</time>
      </trkpt>
      <trkpt lat="43.30762" lon="-1.68732">
        <ele>291</ele>
        <time>2020-04-07T13:54:53Z</time>
      </trkpt>
      <trkpt lat="43.30768" lon="-1.68694">
        <ele>292</ele>
        <time>2020-04-07T13:54:58Z</time>
      </trkpt>
      <trkpt lat="43.30791" lon="-1.68651">
        <ele>296</ele>
        <time>2020-04-07T13:55:05Z</time>
      </trkpt>
      <trkpt lat="43.30829" lon="-1.6864">
        <ele>305</ele>
        <time>2020-04-07T13:55:12Z</time>
      </trkpt>
      <trkpt lat="43.30863" lon="-1.68609">
        <ele>308</ele>
        <time>2020-04-07T13:55:20Z</time>
      </trkpt>
      <trkpt lat="43.30865" lon="-1.68526">
        <ele>302</ele>
        <time>2020-04-07T13:55:31Z</time>
      </trkpt>
      <trkpt lat="43.30897" lon="-1.68473">
        <ele>308</ele>
        <time>2020-04-07T13:55:40Z</time>
      </trkpt>
      <trkpt lat="43.30911" lon="-1.68438">
        <ele>311</ele>
        <time>2020-04-07T13:55:45Z</time>
      </trkpt>
      <trkpt lat="43.30927" lon="-1.68423">
        <ele>314</ele>
        <time>2020-04-07T13:55:48Z</time>
      </trkpt>
      <trkpt lat="43.30959" lon="-1.68429">
        <ele>316</ele>
        <time>2020-04-07T13:55:54Z</time>
      </trkpt>
      <trkpt lat="43.30965" lon="-1.68431">
        <ele>317</ele>
        <time>2020-04-07T13:55:56Z</time>
      </trkpt>
      <trkpt lat="43.30969" lon="-1.68431">
        <ele>317</ele>
        <time>2020-04-07T13:55:56Z</time>
      </trkpt>
      <trkpt lat="43.30972" lon="-1.68435">
        <ele>317</ele>
        <time>2020-04-07T13:55:57Z</time>
      </trkpt>
      <trkpt lat="43.30974" lon="-1.68436">
        <ele>317</ele>
        <time>2020-04-07T13:55:58Z</time>
      </trkpt>
      <trkpt lat="43.3105" lon="-1.6846">
        <ele>315</ele>
        <time>2020-04-07T13:56:12Z</time>
      </trkpt>
      <trkpt lat="43.31185" lon="-1.68492">
        <ele>309</ele>
        <time>2020-04-07T13:56:36Z</time>
      </trkpt>
      <trkpt lat="43.31288" lon="-1.68498">
        <ele>301</ele>
        <time>2020-04-07T13:56:55Z</time>
      </trkpt>
      <trkpt lat="43.31318" lon="-1.68483">
        <ele>303</ele>
        <time>2020-04-07T13:57:00Z</time>
      </trkpt>
      <trkpt lat="43.31362" lon="-1.68495">
        <ele>298</ele>
        <time>2020-04-07T13:57:08Z</time>
      </trkpt>
      <trkpt lat="43.31408" lon="-1.68494">
        <ele>299</ele>
        <time>2020-04-07T13:57:17Z</time>
      </trkpt>
      <trkpt lat="43.31485" lon="-1.68512">
        <ele>289</ele>
        <time>2020-04-07T13:57:31Z</time>
      </trkpt>
      <trkpt lat="43.31519" lon="-1.68509">
        <ele>287</ele>
        <time>2020-04-07T13:57:37Z</time>
      </trkpt>
      <trkpt lat="43.31582" lon="-1.68499">
        <ele>284</ele>
        <time>2020-04-07T13:57:49Z</time>
      </trkpt>
      <trkpt lat="43.31657" lon="-1.68524">
        <ele>275</ele>
        <time>2020-04-07T13:58:03Z</time>
      </trkpt>
      <trkpt lat="43.31708" lon="-1.68512">
        <ele>273</ele>
        <time>2020-04-07T13:58:12Z</time>
      </trkpt>
      <trkpt lat="43.31726" lon="-1.68499">
        <ele>275</ele>
        <time>2020-04-07T13:58:16Z</time>
      </trkpt>
      <trkpt lat="43.31769" lon="-1.68505">
        <ele>268</ele>
        <time>2020-04-07T13:58:23Z</time>
      </trkpt>
      <trkpt lat="43.31817" lon="-1.68494">
        <ele>266</ele>
        <time>2020-04-07T13:58:32Z</time>
      </trkpt>
      <trkpt lat="43.31902" lon="-1.68502">
        <ele>258</ele>
        <time>2020-04-07T13:58:47Z</time>
      </trkpt>
      <trkpt lat="43.31964" lon="-1.68515">
        <ele>251</ele>
        <time>2020-04-07T13:58:59Z</time>
      </trkpt>
      <trkpt lat="43.32007" lon="-1.68524">
        <ele>246</ele>
        <time>2020-04-07T13:59:06Z</time>
      </trkpt>
      <trkpt lat="43.32036" lon="-1.68507">
        <ele>246</ele>
        <time>2020-04-07T13:59:12Z</time>
      </trkpt>
      <trkpt lat="43.32066" lon="-1.68442">
        <ele>249</ele>
        <time>2020-04-07T13:59:22Z</time>
      </trkpt>
      <trkpt lat="43.3208" lon="-1.68428">
        <ele>248</ele>
        <time>2020-04-07T13:59:25Z</time>
      </trkpt>
      <trkpt lat="43.32087" lon="-1.68429">
        <ele>248</ele>
        <time>2020-04-07T13:59:27Z</time>
      </trkpt>
      <trkpt lat="43.32098" lon="-1.68444">
        <ele>248</ele>
        <time>2020-04-07T13:59:29Z</time>
      </trkpt>
      <trkpt lat="43.32112" lon="-1.68487">
        <ele>247</ele>
        <time>2020-04-07T13:59:36Z</time>
      </trkpt>
      <trkpt lat="43.32133" lon="-1.68552">
        <ele>237</ele>
        <time>2020-04-07T13:59:45Z</time>
      </trkpt>
      <trkpt lat="43.32143" lon="-1.68582">
        <ele>231</ele>
        <time>2020-04-07T13:59:50Z</time>
      </trkpt>
      <trkpt lat="43.32196" lon="-1.68592">
        <ele>233</ele>
        <time>2020-04-07T13:59:59Z</time>
      </trkpt>
      <trkpt lat="43.32233" lon="-1.68598">
        <ele>235</ele>
        <time>2020-04-07T14:00:06Z</time>
      </trkpt>
      <trkpt lat="43.3233" lon="-1.68645">
        <ele>224</ele>
        <time>2020-04-07T14:00:24Z</time>
      </trkpt>
      <trkpt lat="43.32357" lon="-1.68667">
        <ele>216</ele>
        <time>2020-04-07T14:00:30Z</time>
      </trkpt>
      <trkpt lat="43.32437" lon="-1.68629">
        <ele>224</ele>
        <time>2020-04-07T14:00:45Z</time>
      </trkpt>
      <trkpt lat="43.32469" lon="-1.68639">
        <ele>219</ele>
        <time>2020-04-07T14:00:51Z</time>
      </trkpt>
      <trkpt lat="43.32534" lon="-1.68691">
        <ele>205</ele>
        <time>2020-04-07T14:01:05Z</time>
      </trkpt>
      <trkpt lat="43.32559" lon="-1.68684">
        <ele>207</ele>
        <time>2020-04-07T14:01:09Z</time>
      </trkpt>
      <trkpt lat="43.32613" lon="-1.68665">
        <ele>210</ele>
        <time>2020-04-07T14:01:19Z</time>
      </trkpt>
      <trkpt lat="43.32686" lon="-1.68683">
        <ele>201</ele>
        <time>2020-04-07T14:01:33Z</time>
      </trkpt>
      <trkpt lat="43.32788" lon="-1.68723">
        <ele>183</ele>
        <time>2020-04-07T14:01:52Z</time>
      </trkpt>
      <trkpt lat="43.32844" lon="-1.68719">
        <ele>178</ele>
        <time>2020-04-07T14:02:02Z</time>
      </trkpt>
      <trkpt lat="43.32935" lon="-1.68659">
        <ele>168</ele>
        <time>2020-04-07T14:02:20Z</time>
      </trkpt>
      <trkpt lat="43.32943" lon="-1.68645">
        <ele>167</ele>
        <time>2020-04-07T14:02:22Z</time>
      </trkpt>
      <trkpt lat="43.32943" lon="-1.68608">
        <ele>168</ele>
        <time>2020-04-07T14:02:27Z</time>
      </trkpt>
      <trkpt lat="43.32915" lon="-1.6852">
        <ele>170</ele>
        <time>2020-04-07T14:02:39Z</time>
      </trkpt>
      <trkpt lat="43.3288" lon="-1.68468">
        <ele>173</ele>
        <time>2020-04-07T14:02:49Z</time>
      </trkpt>
      <trkpt lat="43.32873" lon="-1.68429">
        <ele>171</ele>
        <time>2020-04-07T14:02:54Z</time>
      </trkpt>
      <trkpt lat="43.32894" lon="-1.68375">
        <ele>163</ele>
        <time>2020-04-07T14:03:02Z</time>
      </trkpt>
      <trkpt lat="43.32893" lon="-1.68342">
        <ele>163</ele>
        <time>2020-04-07T14:03:06Z</time>
      </trkpt>
      <trkpt lat="43.32892" lon="-1.68262">
        <ele>157</ele>
        <time>2020-04-07T14:03:17Z</time>
      </trkpt>
      <trkpt lat="43.32888" lon="-1.68221">
        <ele>153</ele>
        <time>2020-04-07T14:03:23Z</time>
      </trkpt>
      <trkpt lat="43.32856" lon="-1.68167">
        <ele>152</ele>
        <time>2020-04-07T14:03:32Z</time>
      </trkpt>
      <trkpt lat="43.32853" lon="-1.68156">
        <ele>150</ele>
        <time>2020-04-07T14:03:33Z</time>
      </trkpt>
      <trkpt lat="43.32866" lon="-1.68149">
        <ele>145</ele>
        <time>2020-04-07T14:03:36Z</time>
      </trkpt>
      <trkpt lat="43.32912" lon="-1.68206">
        <ele>143</ele>
        <time>2020-04-07T14:03:47Z</time>
      </trkpt>
      <trkpt lat="43.3292" lon="-1.68288">
        <ele>149</ele>
        <time>2020-04-07T14:03:58Z</time>
      </trkpt>
      <trkpt lat="43.32926" lon="-1.68306">
        <ele>148</ele>
        <time>2020-04-07T14:04:01Z</time>
      </trkpt>
      <trkpt lat="43.32959" lon="-1.68306">
        <ele>136</ele>
        <time>2020-04-07T14:04:07Z</time>
      </trkpt>
      <trkpt lat="43.32973" lon="-1.68322">
        <ele>133</ele>
        <time>2020-04-07T14:04:10Z</time>
      </trkpt>
      <trkpt lat="43.32981" lon="-1.68376">
        <ele>135</ele>
        <time>2020-04-07T14:04:17Z</time>
      </trkpt>
      <trkpt lat="43.32972" lon="-1.68412">
        <ele>141</ele>
        <time>2020-04-07T14:04:23Z</time>
      </trkpt>
      <trkpt lat="43.32988" lon="-1.68424">
        <ele>138</ele>
        <time>2020-04-07T14:04:26Z</time>
      </trkpt>
      <trkpt lat="43.33028" lon="-1.68417">
        <ele>128</ele>
        <time>2020-04-07T14:04:33Z</time>
      </trkpt>
      <trkpt lat="43.33096" lon="-1.6851">
        <ele>122</ele>
        <time>2020-04-07T14:04:51Z</time>
      </trkpt>
      <trkpt lat="43.33129" lon="-1.68575">
        <ele>118</ele>
        <time>2020-04-07T14:05:01Z</time>
      </trkpt>
      <trkpt lat="43.33176" lon="-1.68602">
        <ele>109</ele>
        <time>2020-04-07T14:05:11Z</time>
      </trkpt>
      <trkpt lat="43.33177" lon="-1.68656">
        <ele>111</ele>
        <time>2020-04-07T14:05:18Z</time>
      </trkpt>
      <trkpt lat="43.33216" lon="-1.68717">
        <ele>107</ele>
        <time>2020-04-07T14:05:28Z</time>
      </trkpt>
      <trkpt lat="43.33262" lon="-1.68737">
        <ele>103</ele>
        <time>2020-04-07T14:05:37Z</time>
      </trkpt>
      <trkpt lat="43.33339" lon="-1.68741">
        <ele>97</ele>
        <time>2020-04-07T14:05:51Z</time>
      </trkpt>
      <trkpt lat="43.33394" lon="-1.68738">
        <ele>98</ele>
        <time>2020-04-07T14:06:00Z</time>
      </trkpt>
      <trkpt lat="43.33391" lon="-1.68727">
        <ele>97</ele>
        <time>2020-04-07T14:06:03Z</time>
      </trkpt>
      <trkpt lat="43.33397" lon="-1.68745">
        <ele>98</ele>
        <time>2020-04-07T14:06:06Z</time>
      </trkpt>
      <trkpt lat="43.33424" lon="-1.68818">
        <ele>98</ele>
        <time>2020-04-07T14:06:17Z</time>
      </trkpt>
      <trkpt lat="43.33435" lon="-1.68877">
        <ele>93</ele>
        <time>2020-04-07T14:06:25Z</time>
      </trkpt>
      <trkpt lat="43.33517" lon="-1.68989">
        <ele>82</ele>
        <time>2020-04-07T14:06:45Z</time>
      </trkpt>
      <trkpt lat="43.33556" lon="-1.69002">
        <ele>82</ele>
        <time>2020-04-07T14:06:52Z</time>
      </trkpt>
      <trkpt lat="43.336" lon="-1.69022">
        <ele>81</ele>
        <time>2020-04-07T14:07:01Z</time>
      </trkpt>
      <trkpt lat="43.33629" lon="-1.69075">
        <ele>74</ele>
        <time>2020-04-07T14:07:10Z</time>
      </trkpt>
      <trkpt lat="43.33677" lon="-1.691">
        <ele>72</ele>
        <time>2020-04-07T14:07:19Z</time>
      </trkpt>
      <trkpt lat="43.33746" lon="-1.69098">
        <ele>66</ele>
        <time>2020-04-07T14:07:31Z</time>
      </trkpt>
      <trkpt lat="43.33819" lon="-1.69062">
        <ele>66</ele>
        <time>2020-04-07T14:07:45Z</time>
      </trkpt>
      <trkpt lat="43.33851" lon="-1.69056">
        <ele>65</ele>
        <time>2020-04-07T14:07:51Z</time>
      </trkpt>
      <trkpt lat="43.33982" lon="-1.69086">
        <ele>63</ele>
        <time>2020-04-07T14:08:15Z</time>
      </trkpt>
      <trkpt lat="43.34049" lon="-1.69085">
        <ele>61</ele>
        <time>2020-04-07T14:08:27Z</time>
      </trkpt>
      <trkpt lat="43.3413" lon="-1.69063">
        <ele>58</ele>
        <time>2020-04-07T14:08:41Z</time>
      </trkpt>
      <trkpt lat="43.34205" lon="-1.69048">
        <ele>52</ele>
        <time>2020-04-07T14:08:55Z</time>
      </trkpt>
      <trkpt lat="43.34479" lon="-1.68993">
        <ele>44</ele>
        <time>2020-04-07T14:09:44Z</time>
      </trkpt>
      <trkpt lat="43.34517" lon="-1.6899">
        <ele>43</ele>
        <time>2020-04-07T14:09:51Z</time>
      </trkpt>
      <trkpt lat="43.34585" lon="-1.68988">
        <ele>42</ele>
        <time>2020-04-07T14:10:03Z</time>
      </trkpt>
      <trkpt lat="43.34671" lon="-1.68933">
        <ele>40.4</ele>
      </trkpt>
    </trkseg>
  </trk>
  <trk>
    <name><![CDATA[irun - ibardin- bera - saint ignace - st jean de luz_2]]></name>
    <trkseg>
      <trkpt lat="43.33569" lon="-1.75249">
        <ele>5.4</ele>
      </trkpt>
      <trkpt lat="43.33569" lon="-1.75249">
        <ele>5.4</ele>
      </trkpt>
      <trkpt lat="43.33623" lon="-1.7529">
        <ele>7</ele>
      </trkpt>
      <trkpt lat="43.3366" lon="-1.75309">
        <ele>5.9</ele>
      </trkpt>
      <trkpt lat="43.33669" lon="-1.75322">
        <ele>4.3</ele>
      </trkpt>
      <trkpt lat="43.3375" lon="-1.75389">
        <ele>7.6</ele>
      </trkpt>
      <trkpt lat="43.33795" lon="-1.75418">
        <ele>7.8</ele>
      </trkpt>
      <trkpt lat="43.33856" lon="-1.75484">
        <ele>4.6</ele>
      </trkpt>
      <trkpt lat="43.33875" lon="-1.75476">
        <ele>4.5</ele>
      </trkpt>
      <trkpt lat="43.33885" lon="-1.75484">
        <ele>4.4</ele>
      </trkpt>
    </trkseg>
  </trk>
  <trk>
    <name><![CDATA[irun - ibardin- bera - saint ignace - st jean de luz_3]]></name>
    <trkseg>
      <trkpt lat="43.33885" lon="-1.75484">
        <ele>4.4</ele>
      </trkpt>
      <trkpt lat="43.33896" lon="-1.75508">
        <ele>5.4</ele>
      </trkpt>
      <trkpt lat="43.33903" lon="-1.75527">
        <ele>5.8</ele>
      </trkpt>
      <trkpt lat="43.33966" lon="-1.75578">
        <ele>6.6</ele>
      </trkpt>
      <trkpt lat="43.34013" lon="-1.75646">
        <ele>9.3</ele>
      </trkpt>
      <trkpt lat="43.34206" lon="-1.75975">
        <ele>3</ele>
      </trkpt>
      <trkpt lat="43.34233" lon="-1.75979">
        <ele>2.7</ele>
      </trkpt>
      <trkpt lat="43.34249" lon="-1.75972">
        <ele>2.7</ele>
      </trkpt>
      <trkpt lat="43.34271" lon="-1.75993">
        <ele>2.9</ele>
      </trkpt>
      <trkpt lat="43.34302" lon="-1.76012">
        <ele>2.4</ele>
      </trkpt>
      <trkpt lat="43.34359" lon="-1.76043">
        <ele>2.9</ele>
      </trkpt>
      <trkpt lat="43.3439" lon="-1.76085">
        <ele>2.9</ele>
      </trkpt>
      <trkpt lat="43.34431" lon="-1.76118">
        <ele>9.1</ele>
      </trkpt>
      <trkpt lat="43.34445" lon="-1.76123">
        <ele>10.4</ele>
      </trkpt>
      <trkpt lat="43.34451" lon="-1.76114">
        <ele>10.9</ele>
      </trkpt>
      <trkpt lat="43.34458" lon="-1.75893">
        <ele>19.8</ele>
      </trkpt>
      <trkpt lat="43.34434" lon="-1.75749">
        <ele>20</ele>
      </trkpt>
      <trkpt lat="43.34376" lon="-1.75637">
        <ele>13.5</ele>
      </trkpt>
      <trkpt lat="43.34289" lon="-1.75469">
        <ele>15.1</ele>
      </trkpt>
      <trkpt lat="43.34149" lon="-1.75301">
        <ele>13.5</ele>
      </trkpt>
      <trkpt lat="43.34085" lon="-1.75229">
        <ele>12.4</ele>
      </trkpt>
      <trkpt lat="43.34056" lon="-1.75228">
        <ele>7.4</ele>
      </trkpt>
      <trkpt lat="43.34047" lon="-1.75228">
        <ele>7.1</ele>
      </trkpt>
      <trkpt lat="43.34047" lon="-1.75206">
        <ele>7.7</ele>
      </trkpt>
      <trkpt lat="43.34057" lon="-1.75194">
        <ele>8.5</ele>
      </trkpt>
      <trkpt lat="43.34068" lon="-1.75192">
        <ele>8.9</ele>
      </trkpt>
      <trkpt lat="43.34102" lon="-1.75118">
        <ele>19.6</ele>
      </trkpt>
      <trkpt lat="43.34124" lon="-1.75046">
        <ele>21.3</ele>
      </trkpt>
      <trkpt lat="43.34184" lon="-1.7494">
        <ele>27.2</ele>
      </trkpt>
      <trkpt lat="43.34203" lon="-1.74898">
        <ele>21.7</ele>
      </trkpt>
      <trkpt lat="43.34235" lon="-1.7484">
        <ele>22.4</ele>
      </trkpt>
      <trkpt lat="43.34229" lon="-1.74784">
        <ele>16.6</ele>
      </trkpt>
      <trkpt lat="43.34219" lon="-1.74748">
        <ele>14.1</ele>
      </trkpt>
      <trkpt lat="43.34247" lon="-1.74656">
        <ele>14.7</ele>
      </trkpt>
      <trkpt lat="43.34254" lon="-1.74604">
        <ele>15.7</ele>
      </trkpt>
      <trkpt lat="43.34254" lon="-1.74578">
        <ele>12.9</ele>
      </trkpt>
      <trkpt lat="43.34236" lon="-1.74546">
        <ele>15.1</ele>
      </trkpt>
      <trkpt lat="43.34194" lon="-1.74464">
        <ele>20.8</ele>
      </trkpt>
      <trkpt lat="43.3418" lon="-1.74379">
        <ele>28.1</ele>
      </trkpt>
      <trkpt lat="43.34181" lon="-1.74283">
        <ele>31.6</ele>
      </trkpt>
      <trkpt lat="43.34219" lon="-1.74203">
        <ele>32.2</ele>
      </trkpt>
      <trkpt lat="43.34255" lon="-1.74187">
        <ele>33.9</ele>
      </trkpt>
      <trkpt lat="43.3426" lon="-1.74141">
        <ele>33.3</ele>
      </trkpt>
      <trkpt lat="43.34263" lon="-1.74075">
        <ele>30.5</ele>
      </trkpt>
      <trkpt lat="43.34254" lon="-1.74033">
        <ele>29.9</ele>
      </trkpt>
      <trkpt lat="43.34255" lon="-1.73979">
        <ele>26.6</ele>
      </trkpt>
      <trkpt lat="43.34268" lon="-1.73931">
        <ele>27.8</ele>
      </trkpt>
      <trkpt lat="43.34236" lon="-1.73843">
        <ele>33.2</ele>
      </trkpt>
      <trkpt lat="43.34219" lon="-1.73635">
        <ele>54.7</ele>
      </trkpt>
      <trkpt lat="43.34207" lon="-1.73563">
        <ele>60.7</ele>
      </trkpt>
      <trkpt lat="43.34213" lon="-1.73419">
        <ele>70.2</ele>
      </trkpt>
      <trkpt lat="43.34155" lon="-1.73363">
        <ele>74.9</ele>
      </trkpt>
      <trkpt lat="43.34149" lon="-1.73339">
        <ele>75</ele>
      </trkpt>
      <trkpt lat="43.34149" lon="-1.73282">
        <ele>79.8</ele>
      </trkpt>
      <trkpt lat="43.34161" lon="-1.73202">
        <ele>84.8</ele>
      </trkpt>
      <trkpt lat="43.34201" lon="-1.72962">
        <ele>106</ele>
      </trkpt>
      <trkpt lat="43.3419" lon="-1.72906">
        <ele>105.7</ele>
      </trkpt>
      <trkpt lat="43.34152" lon="-1.72786">
        <ele>112.2</ele>
      </trkpt>
      <trkpt lat="43.34158" lon="-1.72662">
        <ele>100.6</ele>
      </trkpt>
      <trkpt lat="43.34155" lon="-1.72594">
        <ele>97.7</ele>
      </trkpt>
      <trkpt lat="43.34143" lon="-1.72586">
        <ele>100</ele>
      </trkpt>
      <trkpt lat="43.34161" lon="-1.72562">
        <ele>96.4</ele>
      </trkpt>
      <trkpt lat="43.34181" lon="-1.7257">
        <ele>89.4</ele>
      </trkpt>
      <trkpt lat="43.34231" lon="-1.72514">
        <ele>85.3</ele>
      </trkpt>
      <trkpt lat="43.34306" lon="-1.72361">
        <ele>73.2</ele>
      </trkpt>
      <trkpt lat="43.34344" lon="-1.72261">
        <ele>66</ele>
      </trkpt>
      <trkpt lat="43.34388" lon="-1.72201">
        <ele>63.9</ele>
      </trkpt>
      <trkpt lat="43.34405" lon="-1.72141">
        <ele>60.3</ele>
      </trkpt>
      <trkpt lat="43.34426" lon="-1.72081">
        <ele>58.4</ele>
      </trkpt>
      <trkpt lat="43.34557" lon="-1.71793">
        <ele>48</ele>
      </trkpt>
      <trkpt lat="43.34609" lon="-1.71737">
        <ele>46.5</ele>
      </trkpt>
      <trkpt lat="43.34657" lon="-1.71726">
        <ele>46.5</ele>
      </trkpt>
      <trkpt lat="43.3469" lon="-1.71696">
        <ele>43.9</ele>
      </trkpt>
      <trkpt lat="43.34725" lon="-1.71673">
        <ele>42.1</ele>
      </trkpt>
      <trkpt lat="43.34752" lon="-1.71658">
        <ele>38.5</ele>
      </trkpt>
      <trkpt lat="43.3478" lon="-1.71636">
        <ele>37.7</ele>
      </trkpt>
      <trkpt lat="43.34796" lon="-1.71599">
        <ele>37.2</ele>
      </trkpt>
      <trkpt lat="43.34801" lon="-1.7155">
        <ele>38.1</ele>
      </trkpt>
      <trkpt lat="43.34788" lon="-1.71464">
        <ele>44.8</ele>
      </trkpt>
      <trkpt lat="43.34807" lon="-1.71438">
        <ele>47.5</ele>
      </trkpt>
      <trkpt lat="43.34839" lon="-1.71427">
        <ele>53.2</ele>
      </trkpt>
      <trkpt lat="43.34869" lon="-1.71412">
        <ele>58.7</ele>
      </trkpt>
      <trkpt lat="43.34899" lon="-1.71412">
        <ele>59.4</ele>
      </trkpt>
      <trkpt lat="43.34929" lon="-1.71408">
        <ele>61</ele>
      </trkpt>
      <trkpt lat="43.34943" lon="-1.71393">
        <ele>62.4</ele>
      </trkpt>
      <trkpt lat="43.34983" lon="-1.71262">
        <ele>70.6</ele>
      </trkpt>
      <trkpt lat="43.35008" lon="-1.71232">
        <ele>73</ele>
      </trkpt>
      <trkpt lat="43.35035" lon="-1.7121">
        <ele>73.2</ele>
      </trkpt>
      <trkpt lat="43.35057" lon="-1.71184">
        <ele>73.9</ele>
      </trkpt>
      <trkpt lat="43.35078" lon="-1.71128">
        <ele>76.5</ele>
      </trkpt>
      <trkpt lat="43.3503" lon="-1.70904">
        <ele>78.2</ele>
      </trkpt>
      <trkpt lat="43.35016" lon="-1.7084">
        <ele>79.1</ele>
      </trkpt>
      <trkpt lat="43.35057" lon="-1.70777">
        <ele>79.4</ele>
      </trkpt>
      <trkpt lat="43.35106" lon="-1.70732">
        <ele>76.1</ele>
      </trkpt>
      <trkpt lat="43.35154" lon="-1.70668">
        <ele>75.6</ele>
      </trkpt>
      <trkpt lat="43.35163" lon="-1.70575">
        <ele>75.3</ele>
      </trkpt>
      <trkpt lat="43.35214" lon="-1.70269">
        <ele>76.4</ele>
      </trkpt>
      <trkpt lat="43.35263" lon="-1.70145">
        <ele>67.5</ele>
      </trkpt>
      <trkpt lat="43.35323" lon="-1.70119">
        <ele>63.6</ele>
      </trkpt>
      <trkpt lat="43.35404" lon="-1.69985">
        <ele>59.1</ele>
      </trkpt>
      <trkpt lat="43.35459" lon="-1.69932">
        <ele>57.8</ele>
      </trkpt>
      <trkpt lat="43.35494" lon="-1.69887">
        <ele>58.4</ele>
      </trkpt>
      <trkpt lat="43.35521" lon="-1.69768">
        <ele>50.9</ele>
      </trkpt>
      <trkpt lat="43.35554" lon="-1.69708">
        <ele>49</ele>
      </trkpt>
      <trkpt lat="43.356" lon="-1.69697">
        <ele>48</ele>
      </trkpt>
      <trkpt lat="43.35627" lon="-1.69704">
        <ele>47.5</ele>
      </trkpt>
      <trkpt lat="43.35559" lon="-1.6963">
        <ele>46.8</ele>
      </trkpt>
      <trkpt lat="43.35513" lon="-1.69533">
        <ele>42.6</ele>
      </trkpt>
      <trkpt lat="43.35483" lon="-1.69432">
        <ele>37.7</ele>
      </trkpt>
      <trkpt lat="43.35467" lon="-1.6932">
        <ele>31.2</ele>
      </trkpt>
      <trkpt lat="43.35448" lon="-1.69267">
        <ele>29.4</ele>
      </trkpt>
      <trkpt lat="43.35404" lon="-1.69058">
        <ele>22.3</ele>
      </trkpt>
      <trkpt lat="43.35263" lon="-1.6895">
        <ele>26.4</ele>
      </trkpt>
      <trkpt lat="43.35038" lon="-1.68864">
        <ele>33.9</ele>
      </trkpt>
      <trkpt lat="43.34915" lon="-1.6886">
        <ele>34.6</ele>
      </trkpt>
      <trkpt lat="43.34907" lon="-1.68897">
        <ele>35</ele>
      </trkpt>
      <trkpt lat="43.34886" lon="-1.6892">
        <ele>36</ele>
      </trkpt>
      <trkpt lat="43.34875" lon="-1.68905">
        <ele>35.2</ele>
      </trkpt>
      <trkpt lat="43.34856" lon="-1.6889">
        <ele>35.2</ele>
      </trkpt>
      <trkpt lat="43.34842" lon="-1.68864">
        <ele>35.1</ele>
      </trkpt>
      <trkpt lat="43.34758" lon="-1.68864">
        <ele>36.2</ele>
      </trkpt>
      <trkpt lat="43.34684" lon="-1.68909">
        <ele>39</ele>
      </trkpt>
    </trkseg>
  </trk>
  <trk>
    <name><![CDATA[irun - ibardin- bera - saint ignace - st jean de luz_4]]></name>
    <trkseg>
      <trkpt lat="43.38433" lon="-1.66622">
        <ele>4</ele>
        <time>2020-04-07T14:24:43Z</time>
      </trkpt>
      <trkpt lat="43.38412" lon="-1.66592">
        <ele>4</ele>
        <time>2020-04-07T14:24:48Z</time>
      </trkpt>
      <trkpt lat="43.38407" lon="-1.66557">
        <ele>4</ele>
        <time>2020-04-07T14:24:53Z</time>
      </trkpt>
    </trkseg>
  </trk>
</gpx>